sensor_id;sensor_type;location;lat;lon;timestamp;P1;durP1;ratioP1;P2;durP2;ratioP2
2940;SDS011;1480;51.456;6.670;2024-03-23T00:55:17;6.33;;;2.80;;
2940;SDS011;1480;51.456;6.670;2024-03-23T00:57:44;6.07;;;2.03;;
2940;SDS011;1480;51.456;6.670;2024-03-23T01:00:10;11.10;;;3.33;;
2940;SDS011;1480;51.456;6.670;2024-03-23T01:02:37;5.30;;;2.50;;
2940;SDS011;1480;51.456;6.670;2024-03-23T01:05:03;3.30;;;2.20;;
2940;SDS011;1480;51.456;6.670;2024-03-23T01:07:30;11.03;;;2.43;;
2940;SDS011;1480;51.456;6.670;2024-03-23T01:09:56;5.73;;;2.43;;
2940;SDS011;1480;51.456;6.670;2024-03-23T01:12:24;4.60;;;2.03;;
2940;SDS011;1480;51.456;6.670;2024-03-23T01:14:49;6.13;;;1.80;;
2940;SDS011;1480;51.456;6.670;2024-03-23T01:17:16;4.60;;;1.50;;
2940;SDS011;1480;51.456;6.670;2024-03-23T01:19:42;3.53;;;1.20;;
2940;SDS011;1480;51.456;6.670;2024-03-23T01:22:08;3.53;;;1.70;;
2940;SDS011;1480;51.456;6.670;2024-03-23T01:24:35;6.70;;;1.90;;
2940;SDS011;1480;51.456;6.670;2024-03-23T01:27:02;2.80;;;1.77;;
2940;SDS011;1480;51.456;6.670;2024-03-23T01:29:30;3.10;;;1.80;;
2940;SDS011;1480;51.456;6.670;2024-03-23T01:31:56;8.00;;;2.43;;
2940;SDS011;1480;51.456;6.670;2024-03-23T01:34:22;3.40;;;1.37;;
2940;SDS011;1480;51.456;6.670;2024-03-23T01:36:50;8.43;;;1.87;;
2940;SDS011;1480;51.456;6.670;2024-03-23T01:39:15;3.30;;;1.40;;
2940;SDS011;1480;51.456;6.670;2024-03-23T01:41:42;7.73;;;2.10;;
2940;SDS011;1480;51.456;6.670;2024-03-23T01:44:08;4.27;;;1.83;;
2940;SDS011;1480;51.456;6.670;2024-03-23T01:46:37;2.80;;;1.70;;
2940;SDS011;1480;51.456;6.670;2024-03-23T01:49:04;3.83;;;2.00;;
2940;SDS011;1480;51.456;6.670;2024-03-23T01:51:31;4.13;;;1.63;;
2940;SDS011;1480;51.456;6.670;2024-03-23T01:53:57;2.43;;;1.43;;
2940;SDS011;1480;51.456;6.670;2024-03-23T01:56:26;9.13;;;1.47;;
2940;SDS011;1480;51.456;6.670;2024-03-23T01:58:51;2.13;;;1.40;;
2940;SDS011;1480;51.456;6.670;2024-03-23T02:01:18;6.90;;;2.80;;
2940;SDS011;1480;51.456;6.670;2024-03-23T02:03:45;6.17;;;2.40;;
2940;SDS011;1480;51.456;6.670;2024-03-23T02:06:12;4.33;;;1.77;;
2940;SDS011;1480;51.456;6.670;2024-03-23T02:08:38;2.20;;;1.13;;
2940;SDS011;1480;51.456;6.670;2024-03-23T02:11:05;1.70;;;1.10;;
2940;SDS011;1480;51.456;6.670;2024-03-23T02:13:31;4.13;;;1.73;;
2940;SDS011;1480;51.456;6.670;2024-03-23T02:15:58;2.90;;;1.50;;
2940;SDS011;1480;51.456;6.670;2024-03-23T02:18:23;6.80;;;1.40;;
2940;SDS011;1480;51.456;6.670;2024-03-23T02:20:51;4.20;;;1.40;;
2940;SDS011;1480;51.456;6.670;2024-03-23T02:23:18;2.03;;;1.27;;
2940;SDS011;1480;51.456;6.670;2024-03-23T02:25:45;1.80;;;1.07;;
2940;SDS011;1480;51.456;6.670;2024-03-23T02:28:11;9.57;;;1.80;;
2940;SDS011;1480;51.456;6.670;2024-03-23T02:30:37;3.60;;;1.67;;
2940;SDS011;1480;51.456;6.670;2024-03-23T02:33:03;2.40;;;1.30;;
2940;SDS011;1480;51.456;6.670;2024-03-23T02:35:31;2.70;;;1.30;;
2940;SDS011;1480;51.456;6.670;2024-03-23T02:37:56;3.23;;;1.63;;
2940;SDS011;1480;51.456;6.670;2024-03-23T02:40:24;2.50;;;1.37;;
2940;SDS011;1480;51.456;6.670;2024-03-23T02:42:50;4.80;;;1.93;;
2940;SDS011;1480;51.456;6.670;2024-03-23T02:45:17;4.40;;;1.20;;
2940;SDS011;1480;51.456;6.670;2024-03-23T02:47:43;7.07;;;1.70;;
2940;SDS011;1480;51.456;6.670;2024-03-23T02:50:09;3.57;;;1.30;;
2940;SDS011;1480;51.456;6.670;2024-03-23T02:52:36;2.40;;;1.30;;
2940;SDS011;1480;51.456;6.670;2024-03-23T02:55:03;5.90;;;1.77;;
2940;SDS011;1480;51.456;6.670;2024-03-23T02:57:30;2.20;;;1.70;;
2940;SDS011;1480;51.456;6.670;2024-03-23T02:59:57;4.20;;;1.53;;
2940;SDS011;1480;51.456;6.670;2024-03-23T03:02:22;3.73;;;1.67;;
2940;SDS011;1480;51.456;6.670;2024-03-23T03:04:49;5.40;;;1.57;;
2940;SDS011;1480;51.456;6.670;2024-03-23T03:07:15;5.33;;;1.40;;
2940;SDS011;1480;51.456;6.670;2024-03-23T03:09:41;3.97;;;1.73;;
2940;SDS011;1480;51.456;6.670;2024-03-23T03:12:07;4.73;;;1.70;;
2940;SDS011;1480;51.456;6.670;2024-03-23T03:14:35;4.70;;;1.30;;
2940;SDS011;1480;51.456;6.670;2024-03-23T03:17:01;3.70;;;1.30;;
2940;SDS011;1480;51.456;6.670;2024-03-23T03:19:28;7.90;;;1.77;;
2940;SDS011;1480;51.456;6.670;2024-03-23T03:21:53;2.17;;;1.60;;
2940;SDS011;1480;51.456;6.670;2024-03-23T03:24:20;3.30;;;1.67;;
2940;SDS011;1480;51.456;6.670;2024-03-23T03:26:46;6.90;;;2.13;;
2940;SDS011;1480;51.456;6.670;2024-03-23T03:29:14;8.07;;;1.70;;
2940;SDS011;1480;51.456;6.670;2024-03-23T03:31:41;4.83;;;1.53;;
2940;SDS011;1480;51.456;6.670;2024-03-23T03:34:08;8.70;;;2.33;;
2940;SDS011;1480;51.456;6.670;2024-03-23T03:36:34;5.73;;;2.00;;
2940;SDS011;1480;51.456;6.670;2024-03-23T03:39:01;3.57;;;1.70;;
2940;SDS011;1480;51.456;6.670;2024-03-23T03:41:28;4.67;;;1.47;;
2940;SDS011;1480;51.456;6.670;2024-03-23T03:43:55;6.00;;;1.93;;
2940;SDS011;1480;51.456;6.670;2024-03-23T03:46:20;3.50;;;2.20;;
2940;SDS011;1480;51.456;6.670;2024-03-23T03:48:49;5.50;;;2.00;;
2940;SDS011;1480;51.456;6.670;2024-03-23T03:51:15;2.13;;;1.83;;
2940;SDS011;1480;51.456;6.670;2024-03-23T03:53:41;3.00;;;1.50;;
2940;SDS011;1480;51.456;6.670;2024-03-23T03:56:07;4.17;;;2.00;;
2940;SDS011;1480;51.456;6.670;2024-03-23T03:58:34;8.77;;;2.67;;
2940;SDS011;1480;51.456;6.670;2024-03-23T04:00:59;4.60;;;3.07;;
2940;SDS011;1480;51.456;6.670;2024-03-23T04:03:26;6.10;;;1.97;;
2940;SDS011;1480;51.456;6.670;2024-03-23T04:05:53;5.53;;;1.50;;
2940;SDS011;1480;51.456;6.670;2024-03-23T04:08:20;3.10;;;1.50;;
2940;SDS011;1480;51.456;6.670;2024-03-23T04:10:46;4.03;;;1.80;;
2940;SDS011;1480;51.456;6.670;2024-03-23T04:13:13;3.20;;;1.90;;
2940;SDS011;1480;51.456;6.670;2024-03-23T04:15:39;3.20;;;1.67;;
2940;SDS011;1480;51.456;6.670;2024-03-23T04:18:06;6.53;;;2.63;;
2940;SDS011;1480;51.456;6.670;2024-03-23T04:20:31;7.83;;;2.20;;
2940;SDS011;1480;51.456;6.670;2024-03-23T04:23:00;5.17;;;2.47;;
2940;SDS011;1480;51.456;6.670;2024-03-23T04:25:25;3.83;;;1.93;;
2940;SDS011;1480;51.456;6.670;2024-03-23T04:27:52;5.77;;;1.80;;
2940;SDS011;1480;51.456;6.670;2024-03-23T04:30:18;9.53;;;2.33;;
2940;SDS011;1480;51.456;6.670;2024-03-23T04:32:46;5.10;;;2.97;;
2940;SDS011;1480;51.456;6.670;2024-03-23T04:35:12;5.93;;;2.90;;
2940;SDS011;1480;51.456;6.670;2024-03-23T04:37:39;6.23;;;2.30;;
2940;SDS011;1480;51.456;6.670;2024-03-23T04:40:08;8.40;;;2.10;;
2940;SDS011;1480;51.456;6.670;2024-03-23T04:42:36;5.80;;;2.43;;
2940;SDS011;1480;51.456;6.670;2024-03-23T04:45:03;11.50;;;2.80;;
2940;SDS011;1480;51.456;6.670;2024-03-23T04:47:31;11.47;;;2.77;;
2940;SDS011;1480;51.456;6.670;2024-03-23T04:49:58;4.77;;;2.43;;
2940;SDS011;1480;51.456;6.670;2024-03-23T04:52:24;3.70;;;2.10;;
2940;SDS011;1480;51.456;6.670;2024-03-23T04:54:51;4.70;;;2.90;;
2940;SDS011;1480;51.456;6.670;2024-03-23T04:57:19;4.53;;;2.80;;
2940;SDS011;1480;51.456;6.670;2024-03-23T04:59:48;3.47;;;2.23;;
2940;SDS011;1480;51.456;6.670;2024-03-23T05:02:14;5.77;;;2.87;;
2940;SDS011;1480;51.456;6.670;2024-03-23T05:04:40;8.20;;;2.93;;
2940;SDS011;1480;51.456;6.670;2024-03-23T05:07:07;8.23;;;2.87;;
2940;SDS011;1480;51.456;6.670;2024-03-23T05:09:33;4.60;;;2.43;;
2940;SDS011;1480;51.456;6.670;2024-03-23T05:11:59;5.97;;;3.33;;
2940;SDS011;1480;51.456;6.670;2024-03-23T05:14:26;6.40;;;2.27;;
2940;SDS011;1480;51.456;6.670;2024-03-23T05:16:53;4.37;;;2.67;;
2940;SDS011;1480;51.456;6.670;2024-03-23T05:19:19;3.63;;;2.50;;
2940;SDS011;1480;51.456;6.670;2024-03-23T05:21:46;5.37;;;2.53;;
2940;SDS011;1480;51.456;6.670;2024-03-23T05:24:11;7.70;;;3.33;;
2940;SDS011;1480;51.456;6.670;2024-03-23T05:26:38;6.63;;;3.00;;
2940;SDS011;1480;51.456;6.670;2024-03-23T05:29:04;8.20;;;2.90;;
2940;SDS011;1480;51.456;6.670;2024-03-23T05:31:33;4.93;;;3.40;;
2940;SDS011;1480;51.456;6.670;2024-03-23T05:33:59;5.70;;;2.57;;
2940;SDS011;1480;51.456;6.670;2024-03-23T05:36:25;11.33;;;3.90;;
2940;SDS011;1480;51.456;6.670;2024-03-23T05:38:51;6.50;;;3.17;;
2940;SDS011;1480;51.456;6.670;2024-03-23T05:41:18;4.60;;;2.93;;
2940;SDS011;1480;51.456;6.670;2024-03-23T05:43:43;5.80;;;3.13;;
2940;SDS011;1480;51.456;6.670;2024-03-23T05:46:11;8.23;;;3.30;;
2940;SDS011;1480;51.456;6.670;2024-03-23T05:48:38;5.93;;;3.70;;
2940;SDS011;1480;51.456;6.670;2024-03-23T05:51:04;9.23;;;4.07;;
2940;SDS011;1480;51.456;6.670;2024-03-23T05:53:30;10.53;;;3.80;;
2940;SDS011;1480;51.456;6.670;2024-03-23T05:56:00;5.97;;;2.80;;
2940;SDS011;1480;51.456;6.670;2024-03-23T05:58:28;4.73;;;2.73;;
2940;SDS011;1480;51.456;6.670;2024-03-23T06:00:59;6.63;;;2.97;;
2940;SDS011;1480;51.456;6.670;2024-03-23T06:03:27;6.53;;;3.30;;
2940;SDS011;1480;51.456;6.670;2024-03-23T06:05:55;4.90;;;3.40;;
2940;SDS011;1480;51.456;6.670;2024-03-23T06:08:21;10.70;;;3.63;;
2940;SDS011;1480;51.456;6.670;2024-03-23T06:10:49;11.40;;;3.00;;
2940;SDS011;1480;51.456;6.670;2024-03-23T06:13:15;4.50;;;3.13;;
2940;SDS011;1480;51.456;6.670;2024-03-23T06:15:42;9.60;;;3.10;;
2940;SDS011;1480;51.456;6.670;2024-03-23T06:18:08;6.83;;;3.43;;
2940;SDS011;1480;51.456;6.670;2024-03-23T06:20:34;7.23;;;4.07;;
2940;SDS011;1480;51.456;6.670;2024-03-23T06:23:01;6.97;;;3.20;;
2940;SDS011;1480;51.456;6.670;2024-03-23T06:25:28;9.40;;;4.77;;
2940;SDS011;1480;51.456;6.670;2024-03-23T06:27:54;5.73;;;4.00;;
2940;SDS011;1480;51.456;6.670;2024-03-23T06:30:21;8.87;;;4.77;;
2940;SDS011;1480;51.456;6.670;2024-03-23T06:32:47;5.70;;;3.50;;
2940;SDS011;1480;51.456;6.670;2024-03-23T06:35:13;10.30;;;3.40;;
2940;SDS011;1480;51.456;6.670;2024-03-23T06:37:39;7.97;;;4.00;;
2940;SDS011;1480;51.456;6.670;2024-03-23T06:40:08;15.17;;;5.53;;
2940;SDS011;1480;51.456;6.670;2024-03-23T06:42:35;5.33;;;3.80;;
2940;SDS011;1480;51.456;6.670;2024-03-23T06:45:02;8.93;;;4.63;;
2940;SDS011;1480;51.456;6.670;2024-03-23T06:47:30;9.37;;;5.00;;
2940;SDS011;1480;51.456;6.670;2024-03-23T06:50:00;10.30;;;4.30;;
2940;SDS011;1480;51.456;6.670;2024-03-23T06:52:27;10.67;;;4.43;;
2940;SDS011;1480;51.456;6.670;2024-03-23T06:54:53;10.83;;;5.03;;
2940;SDS011;1480;51.456;6.670;2024-03-23T06:57:21;9.83;;;5.37;;
2940;SDS011;1480;51.456;6.670;2024-03-23T06:59:47;10.27;;;5.57;;
2940;SDS011;1480;51.456;6.670;2024-03-23T07:02:13;10.77;;;4.60;;
2940;SDS011;1480;51.456;6.670;2024-03-23T07:04:41;12.43;;;6.20;;
2940;SDS011;1480;51.456;6.670;2024-03-23T07:07:06;11.30;;;5.00;;
2940;SDS011;1480;51.456;6.670;2024-03-23T07:09:33;10.10;;;5.70;;
2940;SDS011;1480;51.456;6.670;2024-03-23T07:12:00;11.80;;;5.90;;
2940;SDS011;1480;51.456;6.670;2024-03-23T07:14:27;10.90;;;4.93;;
2940;SDS011;1480;51.456;6.670;2024-03-23T07:16:53;8.03;;;4.83;;
2940;SDS011;1480;51.456;6.670;2024-03-23T07:19:19;12.70;;;5.53;;
2940;SDS011;1480;51.456;6.670;2024-03-23T07:21:46;7.40;;;4.70;;
2940;SDS011;1480;51.456;6.670;2024-03-23T07:24:13;9.57;;;5.33;;
2940;SDS011;1480;51.456;6.670;2024-03-23T07:26:39;16.40;;;4.83;;
2940;SDS011;1480;51.456;6.670;2024-03-23T07:29:05;9.20;;;4.47;;
2940;SDS011;1480;51.456;6.670;2024-03-23T07:31:34;8.57;;;4.10;;
2940;SDS011;1480;51.456;6.670;2024-03-23T07:33:59;8.97;;;4.10;;
2940;SDS011;1480;51.456;6.670;2024-03-23T07:36:26;9.00;;;4.67;;
2940;SDS011;1480;51.456;6.670;2024-03-23T07:38:52;8.20;;;4.20;;
2940;SDS011;1480;51.456;6.670;2024-03-23T07:41:19;17.90;;;4.87;;
2940;SDS011;1480;51.456;6.670;2024-03-23T07:43:46;13.77;;;4.67;;
2940;SDS011;1480;51.456;6.670;2024-03-23T07:46:13;6.47;;;3.33;;
2940;SDS011;1480;51.456;6.670;2024-03-23T07:48:41;10.17;;;4.30;;
2940;SDS011;1480;51.456;6.670;2024-03-23T07:51:08;9.30;;;5.00;;
2940;SDS011;1480;51.456;6.670;2024-03-23T07:53:35;8.77;;;4.60;;
2940;SDS011;1480;51.456;6.670;2024-03-23T07:56:02;6.43;;;3.77;;
2940;SDS011;1480;51.456;6.670;2024-03-23T07:58:30;10.13;;;4.90;;
2940;SDS011;1480;51.456;6.670;2024-03-23T08:01:03;5.03;;;3.50;;
2940;SDS011;1480;51.456;6.670;2024-03-23T08:03:29;6.27;;;3.47;;
2940;SDS011;1480;51.456;6.670;2024-03-23T08:05:57;13.93;;;4.27;;
2940;SDS011;1480;51.456;6.670;2024-03-23T08:08:23;10.50;;;3.47;;
2940;SDS011;1480;51.456;6.670;2024-03-23T08:10:50;6.03;;;3.33;;
2940;SDS011;1480;51.456;6.670;2024-03-23T08:13:16;7.20;;;3.33;;
2940;SDS011;1480;51.456;6.670;2024-03-23T08:15:43;9.60;;;3.30;;
2940;SDS011;1480;51.456;6.670;2024-03-23T08:18:09;7.53;;;3.23;;
2940;SDS011;1480;51.456;6.670;2024-03-23T08:20:36;8.67;;;3.00;;
2940;SDS011;1480;51.456;6.670;2024-03-23T08:23:03;6.40;;;3.80;;
2940;SDS011;1480;51.456;6.670;2024-03-23T08:25:31;10.23;;;2.07;;
2940;SDS011;1480;51.456;6.670;2024-03-23T08:27:57;16.90;;;3.13;;
2940;SDS011;1480;51.456;6.670;2024-03-23T08:30:23;4.03;;;2.13;;
2940;SDS011;1480;51.456;6.670;2024-03-23T08:32:49;11.93;;;2.27;;
2940;SDS011;1480;51.456;6.670;2024-03-23T08:35:16;11.30;;;2.90;;
2940;SDS011;1480;51.456;6.670;2024-03-23T08:37:42;7.80;;;2.77;;
2940;SDS011;1480;51.456;6.670;2024-03-23T08:40:10;4.67;;;2.60;;
2940;SDS011;1480;51.456;6.670;2024-03-23T08:42:36;4.37;;;2.13;;
2940;SDS011;1480;51.456;6.670;2024-03-23T08:45:03;3.83;;;1.70;;
2940;SDS011;1480;51.456;6.670;2024-03-23T08:47:29;4.57;;;1.90;;
2940;SDS011;1480;51.456;6.670;2024-03-23T08:49:56;6.23;;;1.80;;
2940;SDS011;1480;51.456;6.670;2024-03-23T08:52:23;4.43;;;1.97;;
2940;SDS011;1480;51.456;6.670;2024-03-23T08:54:52;4.50;;;2.23;;
2940;SDS011;1480;51.456;6.670;2024-03-23T08:57:19;5.50;;;2.30;;
2940;SDS011;1480;51.456;6.670;2024-03-23T08:59:46;5.73;;;2.33;;
2940;SDS011;1480;51.456;6.670;2024-03-23T09:02:12;4.03;;;2.73;;
2940;SDS011;1480;51.456;6.670;2024-03-23T09:04:39;5.87;;;2.77;;
2940;SDS011;1480;51.456;6.670;2024-03-23T09:07:04;5.40;;;2.53;;
2940;SDS011;1480;51.456;6.670;2024-03-23T09:09:31;5.33;;;3.10;;
2940;SDS011;1480;51.456;6.670;2024-03-23T09:11:57;4.00;;;2.97;;
2940;SDS011;1480;51.456;6.670;2024-03-23T09:14:25;8.30;;;2.93;;
2940;SDS011;1480;51.456;6.670;2024-03-23T09:16:50;5.00;;;3.30;;
2940;SDS011;1480;51.456;6.670;2024-03-23T09:19:17;3.47;;;2.30;;
2940;SDS011;1480;51.456;6.670;2024-03-23T09:21:43;5.10;;;2.50;;
2940;SDS011;1480;51.456;6.670;2024-03-23T09:24:09;12.13;;;3.10;;
2940;SDS011;1480;51.456;6.670;2024-03-23T09:26:35;8.30;;;3.47;;
2940;SDS011;1480;51.456;6.670;2024-03-23T09:29:02;6.77;;;3.00;;
2940;SDS011;1480;51.456;6.670;2024-03-23T09:31:30;6.13;;;3.40;;
2940;SDS011;1480;51.456;6.670;2024-03-23T09:33:58;6.57;;;2.60;;
2940;SDS011;1480;51.456;6.670;2024-03-23T09:36:24;5.90;;;2.10;;
2940;SDS011;1480;51.456;6.670;2024-03-23T09:38:51;9.10;;;3.10;;
2940;SDS011;1480;51.456;6.670;2024-03-23T09:41:17;5.80;;;2.43;;
2940;SDS011;1480;51.456;6.670;2024-03-23T09:43:44;5.33;;;2.47;;
2940;SDS011;1480;51.456;6.670;2024-03-23T09:46:13;5.60;;;2.40;;
2940;SDS011;1480;51.456;6.670;2024-03-23T09:48:41;5.20;;;2.27;;
2940;SDS011;1480;51.456;6.670;2024-03-23T09:51:11;5.73;;;2.13;;
2940;SDS011;1480;51.456;6.670;2024-03-23T09:53:38;8.40;;;2.50;;
2940;SDS011;1480;51.456;6.670;2024-03-23T09:56:04;6.47;;;1.53;;
2940;SDS011;1480;51.456;6.670;2024-03-23T09:58:30;5.67;;;1.47;;
2940;SDS011;1480;51.456;6.670;2024-03-23T10:00:57;4.80;;;1.37;;
2940;SDS011;1480;51.456;6.670;2024-03-23T10:03:24;6.37;;;2.33;;
2940;SDS011;1480;51.456;6.670;2024-03-23T10:06:00;5.93;;;1.87;;
2940;SDS011;1480;51.456;6.670;2024-03-23T10:08:27;2.93;;;1.67;;
2940;SDS011;1480;51.456;6.670;2024-03-23T10:10:54;3.03;;;1.40;;
2940;SDS011;1480;51.456;6.670;2024-03-23T10:13:24;2.80;;;1.57;;
2940;SDS011;1480;51.456;6.670;2024-03-23T10:15:54;3.27;;;1.40;;
2940;SDS011;1480;51.456;6.670;2024-03-23T10:18:22;4.97;;;1.80;;
2940;SDS011;1480;51.456;6.670;2024-03-23T10:20:50;1.80;;;1.13;;
2940;SDS011;1480;51.456;6.670;2024-03-23T10:23:19;5.17;;;1.50;;
2940;SDS011;1480;51.456;6.670;2024-03-23T10:25:45;4.00;;;2.73;;
2940;SDS011;1480;51.456;6.670;2024-03-23T10:28:12;3.17;;;1.50;;
2940;SDS011;1480;51.456;6.670;2024-03-23T10:30:37;1.80;;;1.30;;
2940;SDS011;1480;51.456;6.670;2024-03-23T10:33:08;4.53;;;1.40;;
2940;SDS011;1480;51.456;6.670;2024-03-23T10:35:34;2.10;;;1.20;;
2940;SDS011;1480;51.456;6.670;2024-03-23T10:38:01;4.10;;;1.40;;
2940;SDS011;1480;51.456;6.670;2024-03-23T10:40:29;1.83;;;1.00;;
2940;SDS011;1480;51.456;6.670;2024-03-23T10:42:57;6.37;;;1.17;;
2940;SDS011;1480;51.456;6.670;2024-03-23T10:45:23;1.60;;;1.10;;
2940;SDS011;1480;51.456;6.670;2024-03-23T10:47:50;1.83;;;1.00;;
2940;SDS011;1480;51.456;6.670;2024-03-23T10:50:17;1.13;;;0.73;;
2940;SDS011;1480;51.456;6.670;2024-03-23T10:52:45;2.07;;;1.00;;
2940;SDS011;1480;51.456;6.670;2024-03-23T10:55:12;2.00;;;1.13;;
2940;SDS011;1480;51.456;6.670;2024-03-23T10:57:43;1.30;;;0.97;;
2940;SDS011;1480;51.456;6.670;2024-03-23T11:00:10;3.63;;;1.33;;
2940;SDS011;1480;51.456;6.670;2024-03-23T11:02:38;2.00;;;1.50;;
2940;SDS011;1480;51.456;6.670;2024-03-23T11:05:10;2.80;;;1.63;;
2940;SDS011;1480;51.456;6.670;2024-03-23T11:07:55;2.10;;;1.43;;
2940;SDS011;1480;51.456;6.670;2024-03-23T11:10:25;2.43;;;1.50;;
2940;SDS011;1480;51.456;6.670;2024-03-23T11:12:53;4.17;;;1.83;;
2940;SDS011;1480;51.456;6.670;2024-03-23T11:15:19;2.37;;;1.50;;
2940;SDS011;1480;51.456;6.670;2024-03-23T11:20:30;6.00;;;1.80;;
2940;SDS011;1480;51.456;6.670;2024-03-23T11:22:58;2.73;;;2.00;;
2940;SDS011;1480;51.456;6.670;2024-03-23T11:25:25;3.23;;;2.20;;
2940;SDS011;1480;51.456;6.670;2024-03-23T11:27:53;6.00;;;2.37;;
2940;SDS011;1480;51.456;6.670;2024-03-23T11:30:20;4.87;;;3.87;;
2940;SDS011;1480;51.456;6.670;2024-03-23T11:32:48;4.60;;;2.30;;
2940;SDS011;1480;51.456;6.670;2024-03-23T11:35:27;3.40;;;1.90;;
2940;SDS011;1480;51.456;6.670;2024-03-23T11:38:04;9.07;;;1.67;;
2940;SDS011;1480;51.456;6.670;2024-03-23T11:40:30;4.10;;;2.47;;
2940;SDS011;1480;51.456;6.670;2024-03-23T11:42:59;3.40;;;1.60;;
2940;SDS011;1480;51.456;6.670;2024-03-23T11:45:26;3.00;;;1.57;;
2940;SDS011;1480;51.456;6.670;2024-03-23T11:48:05;2.20;;;1.40;;
2940;SDS011;1480;51.456;6.670;2024-03-23T11:50:32;3.67;;;1.00;;
2940;SDS011;1480;51.456;6.670;2024-03-23T11:53:15;7.43;;;1.50;;
2940;SDS011;1480;51.456;6.670;2024-03-23T11:55:41;3.70;;;1.10;;
2940;SDS011;1480;51.456;6.670;2024-03-23T11:58:15;5.40;;;1.37;;
2940;SDS011;1480;51.456;6.670;2024-03-23T12:00:42;3.63;;;1.67;;
2940;SDS011;1480;51.456;6.670;2024-03-23T12:03:09;3.60;;;1.17;;
2940;SDS011;1480;51.456;6.670;2024-03-23T12:05:35;2.33;;;1.27;;
2940;SDS011;1480;51.456;6.670;2024-03-23T12:08:16;1.97;;;1.10;;
2940;SDS011;1480;51.456;6.670;2024-03-23T12:10:44;3.40;;;1.50;;
2940;SDS011;1480;51.456;6.670;2024-03-23T12:13:11;24.97;;;1.63;;
2940;SDS011;1480;51.456;6.670;2024-03-23T12:15:39;1.60;;;0.90;;
2940;SDS011;1480;51.456;6.670;2024-03-23T12:18:08;3.20;;;1.07;;
2940;SDS011;1480;51.456;6.670;2024-03-23T12:20:35;1.57;;;0.80;;
2940;SDS011;1480;51.456;6.670;2024-03-23T12:23:08;2.87;;;1.43;;
2940;SDS011;1480;51.456;6.670;2024-03-23T12:25:37;1.80;;;1.10;;
2940;SDS011;1480;51.456;6.670;2024-03-23T12:28:04;3.43;;;1.10;;
2940;SDS011;1480;51.456;6.670;2024-03-23T12:30:32;4.73;;;1.20;;
2940;SDS011;1480;51.456;6.670;2024-03-23T12:33:00;2.50;;;1.57;;
2940;SDS011;1480;51.456;6.670;2024-03-23T12:35:28;3.60;;;1.40;;
2940;SDS011;1480;51.456;6.670;2024-03-23T12:37:54;2.20;;;1.27;;
2940;SDS011;1480;51.456;6.670;2024-03-23T12:40:21;4.23;;;1.77;;
2940;SDS011;1480;51.456;6.670;2024-03-23T12:42:46;3.27;;;0.93;;
2940;SDS011;1480;51.456;6.670;2024-03-23T12:45:13;5.73;;;1.13;;
2940;SDS011;1480;51.456;6.670;2024-03-23T12:47:39;1.30;;;0.80;;
2940;SDS011;1480;51.456;6.670;2024-03-23T12:50:07;2.60;;;1.10;;
2940;SDS011;1480;51.456;6.670;2024-03-23T12:52:35;1.83;;;0.80;;
2940;SDS011;1480;51.456;6.670;2024-03-23T12:55:05;2.40;;;0.90;;
2940;SDS011;1480;51.456;6.670;2024-03-23T12:57:31;1.97;;;1.10;;
2940;SDS011;1480;51.456;6.670;2024-03-23T12:59:58;1.60;;;1.00;;
2940;SDS011;1480;51.456;6.670;2024-03-23T13:02:24;3.00;;;0.90;;
2940;SDS011;1480;51.456;6.670;2024-03-23T13:04:51;3.30;;;1.10;;
2940;SDS011;1480;51.456;6.670;2024-03-23T13:07:19;5.20;;;1.43;;
2940;SDS011;1480;51.456;6.670;2024-03-23T13:09:47;2.10;;;1.63;;
2940;SDS011;1480;51.456;6.670;2024-03-23T13:12:14;3.73;;;1.47;;
2940;SDS011;1480;51.456;6.670;2024-03-23T13:14:41;1.70;;;1.20;;
2940;SDS011;1480;51.456;6.670;2024-03-23T13:17:07;6.00;;;1.50;;
2940;SDS011;1480;51.456;6.670;2024-03-23T13:19:34;3.43;;;2.00;;
2940;SDS011;1480;51.456;6.670;2024-03-23T13:22:00;2.23;;;1.30;;
2940;SDS011;1480;51.456;6.670;2024-03-23T13:24:29;3.23;;;1.30;;
2940;SDS011;1480;51.456;6.670;2024-03-23T13:26:55;2.93;;;1.00;;
2940;SDS011;1480;51.456;6.670;2024-03-23T13:29:22;3.23;;;1.70;;
2940;SDS011;1480;51.456;6.670;2024-03-23T13:31:49;1.70;;;0.90;;
2940;SDS011;1480;51.456;6.670;2024-03-23T13:34:18;2.57;;;1.10;;
2940;SDS011;1480;51.456;6.670;2024-03-23T13:36:47;2.70;;;1.10;;
2940;SDS011;1480;51.456;6.670;2024-03-23T13:39:14;1.43;;;0.90;;
2940;SDS011;1480;51.456;6.670;2024-03-23T13:41:42;2.00;;;0.77;;
2940;SDS011;1480;51.456;6.670;2024-03-23T13:44:10;2.37;;;0.80;;
2940;SDS011;1480;51.456;6.670;2024-03-23T13:46:36;2.10;;;0.80;;
2940;SDS011;1480;51.456;6.670;2024-03-23T13:49:03;2.07;;;1.00;;
2940;SDS011;1480;51.456;6.670;2024-03-23T13:51:29;1.20;;;0.70;;
2940;SDS011;1480;51.456;6.670;2024-03-23T13:53:56;2.33;;;0.80;;
2940;SDS011;1480;51.456;6.670;2024-03-23T13:56:22;4.00;;;0.90;;
2940;SDS011;1480;51.456;6.670;2024-03-23T13:58:50;6.17;;;1.37;;
2940;SDS011;1480;51.456;6.670;2024-03-23T14:01:16;2.60;;;0.80;;
2940;SDS011;1480;51.456;6.670;2024-03-23T14:03:43;2.03;;;1.00;;
2940;SDS011;1480;51.456;6.670;2024-03-23T14:06:09;1.57;;;0.90;;
2940;SDS011;1480;51.456;6.670;2024-03-23T14:08:37;3.97;;;0.93;;
2940;SDS011;1480;51.456;6.670;2024-03-23T14:11:04;2.60;;;0.90;;
2940;SDS011;1480;51.456;6.670;2024-03-23T14:13:31;1.97;;;1.00;;
2940;SDS011;1480;51.456;6.670;2024-03-23T14:15:58;2.03;;;0.80;;
2940;SDS011;1480;51.456;6.670;2024-03-23T14:18:25;1.30;;;0.70;;
2940;SDS011;1480;51.456;6.670;2024-03-23T14:20:51;2.53;;;0.90;;
2940;SDS011;1480;51.456;6.670;2024-03-23T14:23:18;1.80;;;0.87;;
2940;SDS011;1480;51.456;6.670;2024-03-23T14:25:44;1.97;;;1.00;;
2940;SDS011;1480;51.456;6.670;2024-03-23T14:28:11;1.50;;;0.83;;
2940;SDS011;1480;51.456;6.670;2024-03-23T14:30:39;2.73;;;1.00;;
2940;SDS011;1480;51.456;6.670;2024-03-23T14:33:08;3.30;;;1.20;;
2940;SDS011;1480;51.456;6.670;2024-03-23T14:35:34;1.90;;;0.90;;
2940;SDS011;1480;51.456;6.670;2024-03-23T14:38:01;1.40;;;0.80;;
2940;SDS011;1480;51.456;6.670;2024-03-23T14:40:27;3.10;;;1.60;;
2940;SDS011;1480;51.456;6.670;2024-03-23T14:42:54;3.37;;;1.10;;
2940;SDS011;1480;51.456;6.670;2024-03-23T14:45:20;2.37;;;0.90;;
2940;SDS011;1480;51.456;6.670;2024-03-23T14:47:46;5.43;;;1.73;;
2940;SDS011;1480;51.456;6.670;2024-03-23T14:50:13;2.47;;;1.20;;
2940;SDS011;1480;51.456;6.670;2024-03-23T14:52:42;2.70;;;0.90;;
2940;SDS011;1480;51.456;6.670;2024-03-23T14:55:09;1.50;;;1.00;;
2940;SDS011;1480;51.456;6.670;2024-03-23T14:57:36;4.30;;;1.00;;
2940;SDS011;1480;51.456;6.670;2024-03-23T15:00:02;5.00;;;0.93;;
2940;SDS011;1480;51.456;6.670;2024-03-23T15:02:30;4.57;;;1.07;;
2940;SDS011;1480;51.456;6.670;2024-03-23T15:04:57;3.33;;;1.10;;
2940;SDS011;1480;51.456;6.670;2024-03-23T15:07:26;1.97;;;0.90;;
2940;SDS011;1480;51.456;6.670;2024-03-23T15:09:52;1.40;;;0.97;;
2940;SDS011;1480;51.456;6.670;2024-03-23T15:12:19;3.00;;;1.20;;
2940;SDS011;1480;51.456;6.670;2024-03-23T15:14:46;3.33;;;1.37;;
2940;SDS011;1480;51.456;6.670;2024-03-23T15:17:13;2.40;;;1.30;;
2940;SDS011;1480;51.456;6.670;2024-03-23T15:19:39;8.47;;;1.00;;
2940;SDS011;1480;51.456;6.670;2024-03-23T15:22:07;3.73;;;1.13;;
2940;SDS011;1480;51.456;6.670;2024-03-23T15:24:35;2.00;;;1.20;;
2940;SDS011;1480;51.456;6.670;2024-03-23T15:27:02;3.77;;;1.23;;
2940;SDS011;1480;51.456;6.670;2024-03-23T15:29:28;2.43;;;1.10;;
2940;SDS011;1480;51.456;6.670;2024-03-23T15:31:55;2.23;;;1.07;;
2940;SDS011;1480;51.456;6.670;2024-03-23T15:34:21;2.40;;;1.70;;
2940;SDS011;1480;51.456;6.670;2024-03-23T15:36:47;2.10;;;1.03;;
2940;SDS011;1480;51.456;6.670;2024-03-23T15:39:15;5.83;;;1.37;;
2940;SDS011;1480;51.456;6.670;2024-03-23T15:41:44;6.67;;;1.27;;
2940;SDS011;1480;51.456;6.670;2024-03-23T15:44:10;4.33;;;1.20;;
2940;SDS011;1480;51.456;6.670;2024-03-23T15:46:37;1.67;;;0.90;;
2940;SDS011;1480;51.456;6.670;2024-03-23T15:49:03;5.30;;;1.20;;
2940;SDS011;1480;51.456;6.670;2024-03-23T15:51:30;2.10;;;1.00;;
2940;SDS011;1480;51.456;6.670;2024-03-23T15:53:58;1.47;;;0.90;;
2940;SDS011;1480;51.456;6.670;2024-03-23T15:56:25;2.43;;;0.90;;
2940;SDS011;1480;51.456;6.670;2024-03-23T15:58:52;2.60;;;1.40;;
2940;SDS011;1480;51.456;6.670;2024-03-23T16:01:18;2.17;;;1.20;;
2940;SDS011;1480;51.456;6.670;2024-03-23T16:03:44;2.73;;;1.10;;
2940;SDS011;1480;51.456;6.670;2024-03-23T16:06:11;2.40;;;1.10;;
2940;SDS011;1480;51.456;6.670;2024-03-23T16:08:37;2.50;;;1.27;;
2940;SDS011;1480;51.456;6.670;2024-03-23T16:11:04;2.00;;;1.10;;